sensor_id;sensor_type;location;lat;lon;timestamp;P1;durP1;ratioP1;P2;durP2;ratioP2
61572;SDS011;47465;43.094;12.434;2022-10-29T00:00:24;39.75;;;16.35;;
61572;SDS011;47465;43.094;12.434;2022-10-29T00:02:50;32.45;;;15.63;;
61572;SDS011;47465;43.094;12.434;2022-10-29T00:05:18;33.53;;;13.90;;
61572;SDS011;47465;43.094;12.434;2022-10-29T00:07:44;32.72;;;14.25;;
61572;SDS011;47465;43.094;12.434;2022-10-29T00:10:10;26.58;;;13.48;;
61572;SDS011;47465;43.094;12.434;2022-10-29T00:12:36;30.13;;;13.80;;
61572;SDS011;47465;43.094;12.434;2022-10-29T00:15:01;31.70;;;14.82;;
61572;SDS011;47465;43.094;12.434;2022-10-29T00:17:27;36.55;;;15.82;;
61572;SDS011;47465;43.094;12.434;2022-10-29T00:19:53;31.38;;;14.85;;
61572;SDS011;47465;43.094;12.434;2022-10-29T00:22:21;34.55;;;15.52;;
61572;SDS011;47465;43.094;12.434;2022-10-29T00:24:46;38.40;;;16.20;;
61572;SDS011;47465;43.094;12.434;2022-10-29T00:27:12;39.35;;;16.88;;
61572;SDS011;47465;43.094;12.434;2022-10-29T00:29:38;42.05;;;17.77;;
61572;SDS011;47465;43.094;12.434;2022-10-29T00:32:04;39.28;;;17.80;;
61572;SDS011;47465;43.094;12.434;2022-10-29T00:34:30;34.13;;;15.43;;
61572;SDS011;47465;43.094;12.434;2022-10-29T00:36:56;31.23;;;13.60;;
61572;SDS011;47465;43.094;12.434;2022-10-29T00:39:23;31.27;;;13.85;;
61572;SDS011;47465;43.094;12.434;2022-10-29T00:41:49;31.63;;;14.63;;
61572;SDS011;47465;43.094;12.434;2022-10-29T00:44:27;31.17;;;13.88;;
61572;SDS011;47465;43.094;12.434;2022-10-29T00:46:56;33.65;;;15.13;;
61572;SDS011;47465;43.094;12.434;2022-10-29T00:49:26;35.15;;;15.60;;
61572;SDS011;47465;43.094;12.434;2022-10-29T00:51:53;41.60;;;16.23;;
61572;SDS011;47465;43.094;12.434;2022-10-29T00:54:20;39.30;;;16.88;;
61572;SDS011;47465;43.094;12.434;2022-10-29T00:56:48;35.70;;;14.60;;
61572;SDS011;47465;43.094;12.434;2022-10-29T00:59:16;37.97;;;15.95;;
61572;SDS011;47465;43.094;12.434;2022-10-29T01:01:43;41.40;;;17.90;;
61572;SDS011;47465;43.094;12.434;2022-10-29T01:04:10;37.13;;;15.80;;
61572;SDS011;47465;43.094;12.434;2022-10-29T01:06:37;39.42;;;16.95;;
61572;SDS011;47465;43.094;12.434;2022-10-29T01:09:04;37.90;;;15.52;;
61572;SDS011;47465;43.094;12.434;2022-10-29T01:11:32;36.78;;;16.05;;
61572;SDS011;47465;43.094;12.434;2022-10-29T01:14:10;35.53;;;15.63;;
61572;SDS011;47465;43.094;12.434;2022-10-29T01:16:48;34.10;;;14.97;;
61572;SDS011;47465;43.094;12.434;2022-10-29T01:19:27;37.75;;;15.88;;
61572;SDS011;47465;43.094;12.434;2022-10-29T01:22:18;35.67;;;15.38;;
61572;SDS011;47465;43.094;12.434;2022-10-29T01:24:53;45.75;;;18.80;;
61572;SDS011;47465;43.094;12.434;2022-10-29T01:30:36;40.00;;;17.02;;
61572;SDS011;47465;43.094;12.434;2022-10-29T01:33:27;37.05;;;16.55;;
61572;SDS011;47465;43.094;12.434;2022-10-29T01:36:03;40.90;;;17.50;;
61572;SDS011;47465;43.094;12.434;2022-10-29T01:38:33;36.35;;;16.38;;
61572;SDS011;47465;43.094;12.434;2022-10-29T01:41:06;39.72;;;16.75;;
61572;SDS011;47465;43.094;12.434;2022-10-29T01:43:37;42.92;;;17.58;;
61572;SDS011;47465;43.094;12.434;2022-10-29T01:46:10;41.92;;;19.50;;
61572;SDS011;47465;43.094;12.434;2022-10-29T01:48:41;40.72;;;17.48;;
61572;SDS011;47465;43.094;12.434;2022-10-29T01:51:11;38.33;;;18.27;;
61572;SDS011;47465;43.094;12.434;2022-10-29T01:53:43;38.20;;;16.92;;
61572;SDS011;47465;43.094;12.434;2022-10-29T01:56:10;40.92;;;18.05;;
61572;SDS011;47465;43.094;12.434;2022-10-29T01:58:36;47.45;;;18.88;;
61572;SDS011;47465;43.094;12.434;2022-10-29T02:01:10;40.25;;;17.95;;
61572;SDS011;47465;43.094;12.434;2022-10-29T02:03:48;54.65;;;18.95;;
61572;SDS011;47465;43.094;12.434;2022-10-29T02:06:23;35.45;;;17.42;;
61572;SDS011;47465;43.094;12.434;2022-10-29T02:09:00;38.03;;;17.77;;
61572;SDS011;47465;43.094;12.434;2022-10-29T02:11:33;46.75;;;19.25;;
61572;SDS011;47465;43.094;12.434;2022-10-29T02:14:09;41.55;;;18.67;;
61572;SDS011;47465;43.094;12.434;2022-10-29T02:16:43;44.60;;;19.30;;
61572;SDS011;47465;43.094;12.434;2022-10-29T02:19:09;40.90;;;17.75;;
61572;SDS011;47465;43.094;12.434;2022-10-29T02:21:35;38.58;;;18.27;;
61572;SDS011;47465;43.094;12.434;2022-10-29T02:24:01;45.22;;;19.85;;
61572;SDS011;47465;43.094;12.434;2022-10-29T02:26:27;50.88;;;21.00;;
61572;SDS011;47465;43.094;12.434;2022-10-29T02:28:52;46.58;;;20.35;;
61572;SDS011;47465;43.094;12.434;2022-10-29T02:31:18;44.60;;;19.80;;
61572;SDS011;47465;43.094;12.434;2022-10-29T02:33:46;46.20;;;19.25;;
61572;SDS011;47465;43.094;12.434;2022-10-29T02:36:12;46.42;;;20.60;;
61572;SDS011;47465;43.094;12.434;2022-10-29T02:38:38;51.90;;;20.40;;
61572;SDS011;47465;43.094;12.434;2022-10-29T02:41:03;47.70;;;20.95;;
61572;SDS011;47465;43.094;12.434;2022-10-29T02:43:29;44.55;;;19.75;;
61572;SDS011;47465;43.094;12.434;2022-10-29T02:46:11;51.25;;;20.05;;
61572;SDS011;47465;43.094;12.434;2022-10-29T02:48:38;48.15;;;19.33;;
61572;SDS011;47465;43.094;12.434;2022-10-29T02:51:06;49.85;;;21.80;;
61572;SDS011;47465;43.094;12.434;2022-10-29T02:53:32;42.85;;;18.63;;
61572;SDS011;47465;43.094;12.434;2022-10-29T02:55:58;41.85;;;18.20;;
61572;SDS011;47465;43.094;12.434;2022-10-29T02:58:24;44.70;;;18.02;;
61572;SDS011;47465;43.094;12.434;2022-10-29T03:00:50;39.15;;;17.52;;
61572;SDS011;47465;43.094;12.434;2022-10-29T03:03:17;45.35;;;18.00;;
61572;SDS011;47465;43.094;12.434;2022-10-29T03:05:43;39.42;;;17.42;;
61572;SDS011;47465;43.094;12.434;2022-10-29T03:08:10;39.25;;;17.55;;
61572;SDS011;47465;43.094;12.434;2022-10-29T03:10:36;42.53;;;17.90;;
61572;SDS011;47465;43.094;12.434;2022-10-29T03:13:02;38.42;;;17.45;;
61572;SDS011;47465;43.094;12.434;2022-10-29T03:15:28;39.80;;;18.25;;
61572;SDS011;47465;43.094;12.434;2022-10-29T03:17:54;36.42;;;15.85;;
61572;SDS011;47465;43.094;12.434;2022-10-29T03:20:20;38.08;;;16.08;;
61572;SDS011;47465;43.094;12.434;2022-10-29T03:22:48;33.40;;;17.15;;
61572;SDS011;47465;43.094;12.434;2022-10-29T03:25:16;41.63;;;16.25;;
61572;SDS011;47465;43.094;12.434;2022-10-29T03:27:42;35.08;;;14.80;;
61572;SDS011;47465;43.094;12.434;2022-10-29T03:30:10;39.60;;;16.80;;
61572;SDS011;47465;43.094;12.434;2022-10-29T03:32:38;36.03;;;16.27;;
61572;SDS011;47465;43.094;12.434;2022-10-29T03:35:05;31.88;;;15.80;;
61572;SDS011;47465;43.094;12.434;2022-10-29T03:37:32;36.38;;;16.10;;
61572;SDS011;47465;43.094;12.434;2022-10-29T03:39:57;35.83;;;15.20;;
61572;SDS011;47465;43.094;12.434;2022-10-29T03:42:25;35.40;;;14.55;;
61572;SDS011;47465;43.094;12.434;2022-10-29T03:44:51;29.15;;;13.57;;
61572;SDS011;47465;43.094;12.434;2022-10-29T03:47:16;29.83;;;12.82;;
61572;SDS011;47465;43.094;12.434;2022-10-29T03:49:42;29.70;;;12.90;;
61572;SDS011;47465;43.094;12.434;2022-10-29T03:52:08;31.30;;;13.98;;
61572;SDS011;47465;43.094;12.434;2022-10-29T03:54:34;32.55;;;14.45;;
61572;SDS011;47465;43.094;12.434;2022-10-29T03:57:00;29.52;;;13.52;;
61572;SDS011;47465;43.094;12.434;2022-10-29T03:59:27;32.88;;;14.02;;
61572;SDS011;47465;43.094;12.434;2022-10-29T04:01:53;41.97;;;15.30;;
61572;SDS011;47465;43.094;12.434;2022-10-29T04:04:19;39.42;;;15.15;;
61572;SDS011;47465;43.094;12.434;2022-10-29T04:06:45;35.45;;;15.43;;
61572;SDS011;47465;43.094;12.434;2022-10-29T04:09:10;39.45;;;16.02;;
61572;SDS011;47465;43.094;12.434;2022-10-29T04:11:36;36.95;;;16.05;;
61572;SDS011;47465;43.094;12.434;2022-10-29T04:14:02;41.25;;;16.20;;
61572;SDS011;47465;43.094;12.434;2022-10-29T04:16:30;39.38;;;15.57;;
61572;SDS011;47465;43.094;12.434;2022-10-29T04:18:55;38.47;;;15.60;;
61572;SDS011;47465;43.094;12.434;2022-10-29T04:21:21;38.95;;;16.38;;
61572;SDS011;47465;43.094;12.434;2022-10-29T04:23:47;38.38;;;16.52;;
61572;SDS011;47465;43.094;12.434;2022-10-29T04:26:14;33.40;;;15.57;;
61572;SDS011;47465;43.094;12.434;2022-10-29T04:28:40;33.08;;;14.27;;
61572;SDS011;47465;43.094;12.434;2022-10-29T04:31:06;35.55;;;15.15;;
61572;SDS011;47465;43.094;12.434;2022-10-29T04:33:36;32.63;;;14.95;;
61572;SDS011;47465;43.094;12.434;2022-10-29T04:36:04;36.60;;;16.03;;
61572;SDS011;47465;43.094;12.434;2022-10-29T04:38:30;35.42;;;16.05;;
61572;SDS011;47465;43.094;12.434;2022-10-29T04:40:59;39.10;;;16.20;;
61572;SDS011;47465;43.094;12.434;2022-10-29T04:43:26;32.50;;;15.20;;
61572;SDS011;47465;43.094;12.434;2022-10-29T04:45:52;34.42;;;15.77;;
61572;SDS011;47465;43.094;12.434;2022-10-29T04:48:20;36.88;;;15.30;;
61572;SDS011;47465;43.094;12.434;2022-10-29T04:50:47;38.15;;;15.98;;
61572;SDS011;47465;43.094;12.434;2022-10-29T04:53:14;40.58;;;15.98;;
61572;SDS011;47465;43.094;12.434;2022-10-29T04:55:40;32.75;;;15.40;;
61572;SDS011;47465;43.094;12.434;2022-10-29T04:58:06;36.17;;;16.13;;
61572;SDS011;47465;43.094;12.434;2022-10-29T05:00:36;39.55;;;16.70;;
61572;SDS011;47465;43.094;12.434;2022-10-29T05:03:01;40.72;;;16.50;;
61572;SDS011;47465;43.094;12.434;2022-10-29T05:05:28;38.13;;;16.30;;
61572;SDS011;47465;43.094;12.434;2022-10-29T05:07:58;35.70;;;17.02;;
61572;SDS011;47465;43.094;12.434;2022-10-29T05:10:25;34.78;;;15.05;;
61572;SDS011;47465;43.094;12.434;2022-10-29T05:12:55;33.53;;;16.67;;
61572;SDS011;47465;43.094;12.434;2022-10-29T05:15:21;35.92;;;16.55;;
61572;SDS011;47465;43.094;12.434;2022-10-29T05:17:47;32.50;;;15.48;;
61572;SDS011;47465;43.094;12.434;2022-10-29T05:20:13;37.30;;;16.30;;
61572;SDS011;47465;43.094;12.434;2022-10-29T05:22:38;38.17;;;16.95;;
61572;SDS011;47465;43.094;12.434;2022-10-29T05:25:06;34.95;;;17.00;;
61572;SDS011;47465;43.094;12.434;2022-10-29T05:27:32;34.28;;;16.35;;
61572;SDS011;47465;43.094;12.434;2022-10-29T05:29:58;34.10;;;16.40;;
61572;SDS011;47465;43.094;12.434;2022-10-29T05:32:24;40.78;;;18.00;;
61572;SDS011;47465;43.094;12.434;2022-10-29T05:34:52;38.05;;;16.35;;
61572;SDS011;47465;43.094;12.434;2022-10-29T05:37:18;45.83;;;18.92;;
61572;SDS011;47465;43.094;12.434;2022-10-29T05:39:44;39.70;;;17.60;;
61572;SDS011;47465;43.094;12.434;2022-10-29T05:42:11;40.65;;;18.05;;
61572;SDS011;47465;43.094;12.434;2022-10-29T05:44:37;63.08;;;19.52;;
61572;SDS011;47465;43.094;12.434;2022-10-29T05:47:04;46.03;;;19.15;;
61572;SDS011;47465;43.094;12.434;2022-10-29T05:49:31;45.53;;;20.08;;
61572;SDS011;47465;43.094;12.434;2022-10-29T05:51:57;42.63;;;18.65;;
61572;SDS011;47465;43.094;12.434;2022-10-29T05:54:23;52.75;;;20.48;;
61572;SDS011;47465;43.094;12.434;2022-10-29T05:56:49;44.92;;;20.17;;
61572;SDS011;47465;43.094;12.434;2022-10-29T05:59:16;48.33;;;19.80;;
61572;SDS011;47465;43.094;12.434;2022-10-29T06:01:42;46.10;;;19.42;;
61572;SDS011;47465;43.094;12.434;2022-10-29T06:04:08;45.60;;;17.35;;
61572;SDS011;47465;43.094;12.434;2022-10-29T06:06:34;49.63;;;19.80;;
61572;SDS011;47465;43.094;12.434;2022-10-29T06:09:00;47.03;;;18.80;;
61572;SDS011;47465;43.094;12.434;2022-10-29T06:11:26;55.60;;;19.15;;
61572;SDS011;47465;43.094;12.434;2022-10-29T06:13:53;37.58;;;17.88;;
61572;SDS011;47465;43.094;12.434;2022-10-29T06:16:21;40.20;;;18.88;;
61572;SDS011;47465;43.094;12.434;2022-10-29T06:18:47;43.28;;;20.48;;
61572;SDS011;47465;43.094;12.434;2022-10-29T06:21:13;43.42;;;18.58;;
61572;SDS011;47465;43.094;12.434;2022-10-29T06:23:39;43.45;;;19.08;;
61572;SDS011;47465;43.094;12.434;2022-10-29T06:26:05;46.75;;;19.38;;
61572;SDS011;47465;43.094;12.434;2022-10-29T06:28:31;45.20;;;18.85;;
61572;SDS011;47465;43.094;12.434;2022-10-29T06:30:57;40.60;;;18.33;;
61572;SDS011;47465;43.094;12.434;2022-10-29T06:33:24;41.22;;;17.23;;
61572;SDS011;47465;43.094;12.434;2022-10-29T06:35:50;45.58;;;17.88;;
61572;SDS011;47465;43.094;12.434;2022-10-29T06:38:16;36.28;;;16.23;;
61572;SDS011;47465;43.094;12.434;2022-10-29T06:40:42;34.95;;;16.90;;
61572;SDS011;47465;43.094;12.434;2022-10-29T06:43:17;33.80;;;16.05;;
61572;SDS011;47465;43.094;12.434;2022-10-29T06:45:43;35.90;;;17.00;;
61572;SDS011;47465;43.094;12.434;2022-10-29T06:48:09;32.15;;;16.23;;
61572;SDS011;47465;43.094;12.434;2022-10-29T06:50:37;35.72;;;16.23;;
61572;SDS011;47465;43.094;12.434;2022-10-29T06:53:03;33.47;;;16.13;;
61572;SDS011;47465;43.094;12.434;2022-10-29T06:55:31;30.63;;;15.75;;
61572;SDS011;47465;43.094;12.434;2022-10-29T06:57:58;34.85;;;16.70;;
61572;SDS011;47465;43.094;12.434;2022-10-29T07:00:26;30.58;;;15.10;;
61572;SDS011;47465;43.094;12.434;2022-10-29T07:02:52;33.47;;;15.75;;
61572;SDS011;47465;43.094;12.434;2022-10-29T07:05:18;34.65;;;15.77;;
61572;SDS011;47465;43.094;12.434;2022-10-29T07:07:47;28.13;;;15.52;;
61572;SDS011;47465;43.094;12.434;2022-10-29T07:10:13;29.33;;;14.73;;
61572;SDS011;47465;43.094;12.434;2022-10-29T07:12:39;29.80;;;14.65;;
61572;SDS011;47465;43.094;12.434;2022-10-29T07:15:06;29.55;;;15.10;;
61572;SDS011;47465;43.094;12.434;2022-10-29T07:17:32;31.17;;;15.25;;
61572;SDS011;47465;43.094;12.434;2022-10-29T07:19:58;28.45;;;13.75;;
61572;SDS011;47465;43.094;12.434;2022-10-29T07:22:24;27.25;;;14.90;;
61572;SDS011;47465;43.094;12.434;2022-10-29T07:24:52;31.83;;;14.82;;
61572;SDS011;47465;43.094;12.434;2022-10-29T07:27:31;31.35;;;14.23;;
61572;SDS011;47465;43.094;12.434;2022-10-29T07:30:15;27.85;;;13.77;;
61572;SDS011;47465;43.094;12.434;2022-10-29T07:32:44;26.55;;;13.15;;
61572;SDS011;47465;43.094;12.434;2022-10-29T07:38:11;26.98;;;13.95;;
61572;SDS011;47465;43.094;12.434;2022-10-29T07:40:39;25.05;;;12.45;;
61572;SDS011;47465;43.094;12.434;2022-10-29T07:43:11;36.00;;;14.35;;
61572;SDS011;47465;43.094;12.434;2022-10-29T07:45:37;29.33;;;14.65;;
61572;SDS011;47465;43.094;12.434;2022-10-29T07:48:03;30.15;;;12.82;;
61572;SDS011;47465;43.094;12.434;2022-10-29T07:50:32;24.88;;;13.32;;
61572;SDS011;47465;43.094;12.434;2022-10-29T07:52:58;24.88;;;12.75;;
61572;SDS011;47465;43.094;12.434;2022-10-29T07:55:25;25.63;;;13.27;;
61572;SDS011;47465;43.094;12.434;2022-10-29T07:57:55;22.63;;;11.98;;
61572;SDS011;47465;43.094;12.434;2022-10-29T08:00:23;21.73;;;12.90;;
61572;SDS011;47465;43.094;12.434;2022-10-29T08:02:50;24.40;;;13.27;;
61572;SDS011;47465;43.094;12.434;2022-10-29T08:05:17;23.70;;;12.27;;
61572;SDS011;47465;43.094;12.434;2022-10-29T08:07:43;20.65;;;11.73;;
61572;SDS011;47465;43.094;12.434;2022-10-29T08:10:09;21.70;;;11.73;;
61572;SDS011;47465;43.094;12.434;2022-10-29T08:12:35;20.95;;;11.50;;
61572;SDS011;47465;43.094;12.434;2022-10-29T08:15:02;20.10;;;10.70;;
61572;SDS011;47465;43.094;12.434;2022-10-29T08:17:30;21.95;;;11.13;;
61572;SDS011;47465;43.094;12.434;2022-10-29T08:19:56;23.02;;;11.18;;
61572;SDS011;47465;43.094;12.434;2022-10-29T08:22:22;21.73;;;12.48;;
61572;SDS011;47465;43.094;12.434;2022-10-29T08:24:48;21.63;;;11.75;;
61572;SDS011;47465;43.094;12.434;2022-10-29T08:27:14;21.38;;;11.13;;
61572;SDS011;47465;43.094;12.434;2022-10-29T08:29:40;21.65;;;11.27;;
61572;SDS011;47465;43.094;12.434;2022-10-29T08:32:07;20.23;;;10.50;;
61572;SDS011;47465;43.094;12.434;2022-10-29T08:34:33;16.13;;;8.20;;
61572;SDS011;47465;43.094;12.434;2022-10-29T08:36:59;18.15;;;8.70;;
61572;SDS011;47465;43.094;12.434;2022-10-29T08:39:26;16.65;;;8.52;;
61572;SDS011;47465;43.094;12.434;2022-10-29T08:41:54;15.75;;;8.48;;
61572;SDS011;47465;43.094;12.434;2022-10-29T08:47:31;11.80;;;7.32;;
61572;SDS011;47465;43.094;12.434;2022-10-29T08:50:13;15.05;;;6.85;;
61572;SDS011;47465;43.094;12.434;2022-10-29T08:52:43;14.93;;;7.47;;
61572;SDS011;47465;43.094;12.434;2022-10-29T08:55:11;14.18;;;8.50;;
61572;SDS011;47465;43.094;12.434;2022-10-29T08:57:41;17.58;;;8.40;;
61572;SDS011;47465;43.094;12.434;2022-10-29T09:00:15;14.48;;;7.75;;
61572;SDS011;47465;43.094;12.434;2022-10-29T09:02:43;15.00;;;8.02;;
61572;SDS011;47465;43.094;12.434;2022-10-29T09:05:13;17.13;;;8.35;;
61572;SDS011;47465;43.094;12.434;2022-10-29T09:07:53;12.70;;;7.45;;
61572;SDS011;47465;43.094;12.434;2022-10-29T09:10:31;12.88;;;7.50;;
61572;SDS011;47465;43.094;12.434;2022-10-29T09:16:09;16.05;;;7.50;;
61572;SDS011;47465;43.094;12.434;2022-10-29T09:18:52;13.30;;;6.40;;
61572;SDS011;47465;43.094;12.434;2022-10-29T09:21:31;17.05;;;7.93;;
61572;SDS011;47465;43.094;12.434;2022-10-29T09:24:02;14.50;;;7.07;;
61572;SDS011;47465;43.094;12.434;2022-10-29T09:26:38;14.65;;;6.95;;
61572;SDS011;47465;43.094;12.434;2022-10-29T09:29:34;13.40;;;6.60;;
61572;SDS011;47465;43.094;12.434;2022-10-29T09:32:21;15.27;;;7.03;;
61572;SDS011;47465;43.094;12.434;2022-10-29T09:34:54;12.55;;;6.90;;
61572;SDS011;47465;43.094;12.434;2022-10-29T09:37:26;16.73;;;7.43;;
61572;SDS011;47465;43.094;12.434;2022-10-29T09:39:58;14.57;;;6.97;;
61572;SDS011;47465;43.094;12.434;2022-10-29T09:42:30;12.70;;;7.00;;
61572;SDS011;47465;43.094;12.434;2022-10-29T09:45:00;12.95;;;6.65;;
61572;SDS011;47465;43.094;12.434;2022-10-29T09:47:32;13.30;;;7.05;;
61572;SDS011;47465;43.094;12.434;2022-10-29T09:50:10;13.52;;;7.15;;
61572;SDS011;47465;43.094;12.434;2022-10-29T09:52:43;15.93;;;6.80;;
61572;SDS011;47465;43.094;12.434;2022-10-29T09:57:43;15.60;;;6.60;;
61572;SDS011;47465;43.094;12.434;2022-10-29T10:00:13;14.05;;;7.47;;
61572;SDS011;47465;43.094;12.434;2022-10-29T10:02:44;16.05;;;7.28;;
61572;SDS011;47465;43.094;12.434;2022-10-29T10:05:15;12.55;;;6.60;;
61572;SDS011;47465;43.094;12.434;2022-10-29T10:08:02;12.05;;;7.03;;
61572;SDS011;47465;43.094;12.434;2022-10-29T10:10:31;14.98;;;7.55;;
61572;SDS011;47465;43.094;12.434;2022-10-29T10:13:00;15.45;;;6.30;;
61572;SDS011;47465;43.094;12.434;2022-10-29T10:15:28;13.18;;;7.50;;
61572;SDS011;47465;43.094;12.434;2022-10-29T10:17:58;16.63;;;7.65;;
61572;SDS011;47465;43.094;12.434;2022-10-29T10:20:38;14.55;;;7.45;;
61572;SDS011;47465;43.094;12.434;2022-10-29T10:26:07;14.25;;;7.32;;
61572;SDS011;47465;43.094;12.434;2022-10-29T10:29:07;13.70;;;6.32;;
61572;SDS011;47465;43.094;12.434;2022-10-29T10:31:36;15.73;;;7.63;;
61572;SDS011;47465;43.094;12.434;2022-10-29T10:34:06;15.65;;;7.75;;
61572;SDS011;47465;43.094;12.434;2022-10-29T10:36:36;16.05;;;7.88;;
61572;SDS011;47465;43.094;12.434;2022-10-29T10:39:12;17.67;;;9.50;;
61572;SDS011;47465;43.094;12.434;2022-10-29T10:41:45;12.68;;;8.18;;
61572;SDS011;47465;43.094;12.434;2022-10-29T10:44:15;15.88;;;8.20;;
61572;SDS011;47465;43.094;12.434;2022-10-29T10:46:48;14.50;;;6.93;;
61572;SDS011;47465;43.094;12.434;2022-10-29T10:49:27;18.88;;;8.15;;
61572;SDS011;47465;43.094;12.434;2022-10-29T10:52:00;16.75;;;7.55;;
61572;SDS011;47465;43.094;12.434;2022-10-29T10:54:30;15.68;;;7.57;;
61572;SDS011;47465;43.094;12.434;2022-10-29T10:57:04;13.70;;;7.10;;
61572;SDS011;47465;43.094;12.434;2022-10-29T10:59:58;14.32;;;7.10;;
61572;SDS011;47465;43.094;12.434;2022-10-29T11:02:30;18.95;;;7.57;;
61572;SDS011;47465;43.094;12.434;2022-10-29T11:05:08;13.88;;;7.55;;
61572;SDS011;47465;43.094;12.434;2022-10-29T11:07:43;16.52;;;7.25;;
61572;SDS011;47465;43.094;12.434;2022-10-29T11:10:16;19.67;;;7.80;;
61572;SDS011;47465;43.094;12.434;2022-10-29T11:13:01;16.73;;;8.20;;
61572;SDS011;47465;43.094;12.434;2022-10-29T11:15:38;16.33;;;9.20;;
61572;SDS011;47465;43.094;12.434;2022-10-29T11:18:13;22.20;;;9.15;;
61572;SDS011;47465;43.094;12.434;2022-10-29T11:20:43;15.93;;;9.02;;
61572;SDS011;47465;43.094;12.434;2022-10-29T11:23:28;14.32;;;8.40;;
61572;SDS011;47465;43.094;12.434;2022-10-29T11:26:05;18.15;;;8.98;;
61572;SDS011;47465;43.094;12.434;2022-10-29T11:28:37;14.32;;;7.95;;
61572;SDS011;47465;43.094;12.434;2022-10-29T11:31:10;17.63;;;9.57;;
61572;SDS011;47465;43.094;12.434;2022-10-29T11:33:46;16.00;;;9.13;;
61572;SDS011;47465;43.094;12.434;2022-10-29T11:36:21;15.52;;;9.05;;
61572;SDS011;47465;43.094;12.434;2022-10-29T11:38:51;21.13;;;10.10;;
61572;SDS011;47465;43.094;12.434;2022-10-29T11:41:24;21.23;;;9.80;;
61572;SDS011;47465;43.094;12.434;2022-10-29T11:43:55;22.40;;;11.68;;
61572;SDS011;47465;43.094;12.434;2022-10-29T11:46:23;20.27;;;10.95;;
61572;SDS011;47465;43.094;12.434;2022-10-29T11:49:05;24.02;;;12.25;;
61572;SDS011;47465;43.094;12.434;2022-10-29T11:51:45;19.67;;;11.40;;
61572;SDS011;47465;43.094;12.434;2022-10-29T11:54:30;20.42;;;11.40;;
61572;SDS011;47465;43.094;12.434;2022-10-29T11:57:10;19.75;;;10.43;;
61572;SDS011;47465;43.094;12.434;2022-10-29T11:59:56;20.08;;;11.10;;
61572;SDS011;47465;43.094;12.434;2022-10-29T12:02:37;18.15;;;10.90;;
61572;SDS011;47465;43.094;12.434;2022-10-29T12:05:14;20.13;;;11.60;;
61572;SDS011;47465;43.094;12.434;2022-10-29T12:07:52;18.25;;;11.55;;
61572;SDS011;47465;43.094;12.434;2022-10-29T12:10:39;24.27;;;11.32;;
61572;SDS011;47465;43.094;12.434;2022-10-29T12:15:45;19.95;;;10.45;;
61572;SDS011;47465;43.094;12.434;2022-10-29T12:18:19;21.92;;;11.32;;
61572;SDS011;47465;43.094;12.434;2022-10-29T12:20:52;23.08;;;11.55;;
61572;SDS011;47465;43.094;12.434;2022-10-29T12:23:32;24.92;;;11.88;;
61572;SDS011;47465;43.094;12.434;2022-10-29T12:26:06;18.77;;;10.75;;
61572;SDS011;47465;43.094;12.434;2022-10-29T12:28:38;20.00;;;11.20;;
61572;SDS011;47465;43.094;12.434;2022-10-29T12:31:20;22.77;;;11.95;;
61572;SDS011;47465;43.094;12.434;2022-10-29T12:33:53;22.25;;;12.23;;
61572;SDS011;47465;43.094;12.434;2022-10-29T12:36:28;21.45;;;10.80;;
61572;SDS011;47465;43.094;12.434;2022-10-29T12:39:02;17.63;;;10.48;;
61572;SDS011;47465;43.094;12.434;2022-10-29T12:41:37;20.38;;;11.10;;
61572;SDS011;47465;43.094;12.434;2022-10-29T12:44:09;18.00;;;10.00;;
61572;SDS011;47465;43.094;12.434;2022-10-29T12:46:43;20.65;;;10.73;;
61572;SDS011;47465;43.094;12.434;2022-10-29T12:49:21;24.60;;;10.25;;
61572;SDS011;47465;43.094;12.434;2022-10-29T12:51:57;18.75;;;9.55;;
61572;SDS011;47465;43.094;12.434;2022-10-29T12:54:30;17.50;;;9.18;;
61572;SDS011;47465;43.094;12.434;2022-10-29T12:57:04;18.02;;;9.82;;
61572;SDS011;47465;43.094;12.434;2022-10-29T12:59:32;14.80;;;9.40;;
61572;SDS011;47465;43.094;12.434;2022-10-29T13:05:13;14.35;;;8.75;;
61572;SDS011;47465;43.094;12.434;2022-10-29T13:10:52;18.17;;;8.43;;
61572;SDS011;47465;43.094;12.434;2022-10-29T13:13:21;13.18;;;7.43;;
61572;SDS011;47465;43.094;12.434;2022-10-29T13:16:13;16.75;;;7.22;;
61572;SDS011;47465;43.094;12.434;2022-10-29T13:18:47;14.02;;;7.80;;
61572;SDS011;47465;43.094;12.434;2022-10-29T13:27:04;12.52;;;6.82;;
61572;SDS011;47465;43.094;12.434;2022-10-29T13:30:21;12.55;;;6.78;;
61572;SDS011;47465;43.094;12.434;2022-10-29T13:32:50;11.70;;;6.65;;
61572;SDS011;47465;43.094;12.434;2022-10-29T13:38:09;11.32;;;6.20;;
61572;SDS011;47465;43.094;12.434;2022-10-29T13:43:34;11.70;;;6.00;;
61572;SDS011;47465;43.094;12.434;2022-10-29T13:49:08;11.07;;;5.63;;
61572;SDS011;47465;43.094;12.434;2022-10-29T13:51:39;11.95;;;6.07;;
61572;SDS011;47465;43.094;12.434;2022-10-29T13:54:14;15.18;;;6.57;;
61572;SDS011;47465;43.094;12.434;2022-10-29T13:56:48;11.60;;;6.38;;
61572;SDS011;47465;43.094;12.434;2022-10-29T13:59:40;10.25;;;6.78;;
61572;SDS011;47465;43.094;12.434;2022-10-29T14:02:22;13.15;;;6.35;;
61572;SDS011;47465;43.094;12.434;2022-10-29T14:04:55;14.52;;;6.88;;
61572;SDS011;47465;43.094;12.434;2022-10-29T14:07:27;14.70;;;6.88;;
61572;SDS011;47465;43.094;12.434;2022-10-29T14:10:00;12.55;;;6.25;;
61572;SDS011;47465;43.094;12.434;2022-10-29T14:12:32;14.48;;;7.22;;
61572;SDS011;47465;43.094;12.434;2022-10-29T14:15:00;12.60;;;7.03;;
61572;SDS011;47465;43.094;12.434;2022-10-29T14:17:36;14.52;;;7.25;;
61572;SDS011;47465;43.094;12.434;2022-10-29T14:20:02;9.55;;;6.18;;
61572;SDS011;47465;43.094;12.434;2022-10-29T14:22:29;15.18;;;6.30;;
61572;SDS011;47465;43.094;12.434;2022-10-29T14:24:59;10.60;;;6.07;;
61572;SDS011;47465;43.094;12.434;2022-10-29T14:27:26;11.95;;;6.45;;
61572;SDS011;47465;43.094;12.434;2022-10-29T14:32:39;42.15;;;7.40;;
61572;SDS011;47465;43.094;12.434;2022-10-29T14:35:06;17.65;;;6.55;;
61572;SDS011;47465;43.094;12.434;2022-10-29T14:37:32;10.88;;;5.95;;
61572;SDS011;47465;43.094;12.434;2022-10-29T14:40:04;8.38;;;5.35;;
61572;SDS011;47465;43.094;12.434;2022-10-29T14:42:39;9.45;;;5.35;;
61572;SDS011;47465;43.094;12.434;2022-10-29T14:45:15;10.73;;;5.93;;
61572;SDS011;47465;43.094;12.434;2022-10-29T14:47:48;16.67;;;7.47;;
61572;SDS011;47465;43.094;12.434;2022-10-29T14:50:17;16.17;;;7.28;;
61572;SDS011;47465;43.094;12.434;2022-10-29T14:52:46;14.98;;;7.88;;
61572;SDS011;47465;43.094;12.434;2022-10-29T14:57:43;13.30;;;7.35;;
61572;SDS011;47465;43.094;12.434;2022-10-29T15:00:20;12.35;;;6.90;;
61572;SDS011;47465;43.094;12.434;2022-10-29T15:02:49;15.30;;;7.18;;
61572;SDS011;47465;43.094;12.434;2022-10-29T15:05:19;14.20;;;7.28;;
61572;SDS011;47465;43.094;12.434;2022-10-29T15:07:48;14.70;;;7.43;;
61572;SDS011;47465;43.094;12.434;2022-10-29T15:10:15;12.35;;;7.15;;
61572;SDS011;47465;43.094;12.434;2022-10-29T15:12:44;13.57;;;7.57;;
61572;SDS011;47465;43.094;12.434;2022-10-29T15:15:19;13.82;;;7.20;;
61572;SDS011;47465;43.094;12.434;2022-10-29T15:17:49;15.02;;;6.80;;